logo dgac
Lunes 20 de Septiembre del 2021
Buscar por aerodromo o helipuerto
Ingrese nombre de aeródromo, localidad o designador OACI:
TAF: TAF SCSN 201009Z 2012/2024 15007KT CAVOK TX18/2018Z TN05/2012Z TEMPO 2012/2014 4000 HZ NSC BECMG 2016/2018 21013KT
TAF del 20/09/2021 a las 10:09 UTC
Para mayor información visite www.meteochile.cl
Período de validez: desde el 20 a las 12:00 UTC hasta el 20 a las 24:00 UTC
Viento: dirección 150 grados, velocidad 7 nudos
Visibilidad: 10 km o más,
    sin nubes bajo los 5.000 pies o bajo del MSA (Mínimo de Seguridad del Aeródromo),
    sin cumulonimbus, y sin fenómenos de tiempo significativo en el aeródromo o alrededores
Temperatura máxima: 18ºC el 20 a las 18:00 UTC
Temperatura mínima: 5ºC el 20 a las 12:00 UTC
Se espera en forma temporal entre las 12:00 UTC del 20 y las 14:00 UTC del 20:
Visibilidad: 4000 metros
Bruma
Sin nubes bajo los 5000 pies o bajo del MSA (Mínimo de Seguridad del Aeródromo)
Se espera un cambio entre las 16:00 UTC del 20 y las 18:00 UTC del 20, :
Viento: dirección 210 grados, velocidad 13 nudos